Terminal Aerodrome Forecast
Issued by NWS Grand Forks, ND

Home | Current Version | Previous Version | Text Only | Print | Product List | Glossary Off
Versions: 1 2 3 4 5 6 7 8 9 10 11 12 13 14 15 16 17 18

000
FTUS43 KFGF 100532
TAFGFK
TAF
KGFK 100532Z 1006/1106 32012KT P6SM BKN200
     FM101300 33008KT P6SM BKN015
     FM101800 29006KT P6SM BKN015
     FM102300 22007KT P6SM BKN010
     FM110100 20007KT 1SM -SN OVC008
     FM110300 21008KT 1 1/2SM -SN BKN010
     FM110500 25009KT 5SM -RASN BKN025=

USA.gov is the U.S. government's official web portal to all federal, state and local government web resources and services.